sensor_id;sensor_type;location;lat;lon;timestamp;pressure;altitude;pressure_sealevel;temperature;humidity
15880;BME280;61999;51.514;14.614;2024-01-30T00:00:28;101489.13;;;-2.03;100.00
15880;BME280;61999;51.514;14.614;2024-01-30T00:02:57;101496.97;;;-2.26;100.00
15880;BME280;61999;51.514;14.614;2024-01-30T00:05:26;101488.34;;;-2.36;100.00
15880;BME280;61999;51.514;14.614;2024-01-30T00:07:54;101491.78;;;-2.34;100.00
15880;BME280;61999;51.514;14.614;2024-01-30T00:10:22;101494.38;;;-2.31;100.00
15880;BME280;61999;51.514;14.614;2024-01-30T00:12:50;101488.34;;;-2.32;100.00
15880;BME280;61999;51.514;14.614;2024-01-30T00:15:19;101485.78;;;-2.36;100.00
15880;BME280;61999;51.514;14.614;2024-01-30T00:17:47;101485.63;;;-1.87;100.00
15880;BME280;61999;51.514;14.614;2024-01-30T00:20:15;101494.31;;;-2.03;100.00
15880;BME280;61999;51.514;14.614;2024-01-30T00:22:45;101485.66;;;-1.96;100.00
15880;BME280;61999;51.514;14.614;2024-01-30T00:25:13;101491.63;;;-1.83;100.00
15880;BME280;61999;51.514;14.614;2024-01-30T00:27:41;101486.59;;;-2.13;100.00
15880;BME280;61999;51.514;14.614;2024-01-30T00:30:11;101478.78;;;-2.00;100.00
15880;BME280;61999;51.514;14.614;2024-01-30T00:32:39;101487.38;;;-1.95;100.00
15880;BME280;61999;51.514;14.614;2024-01-30T00:35:07;101495.19;;;-2.15;100.00
15880;BME280;61999;51.514;14.614;2024-01-30T00:37:36;101486.59;;;-2.13;100.00
15880;BME280;61999;51.514;14.614;2024-01-30T00:40:07;101484.88;;;-2.15;100.00
15880;BME280;61999;51.514;14.614;2024-01-30T00:42:37;101480.56;;;-2.19;100.00
15880;BME280;61999;51.514;14.614;2024-01-30T00:45:05;101479.81;;;-2.73;100.00
15880;BME280;61999;51.514;14.614;2024-01-30T00:47:33;101482.31;;;-2.26;100.00
15880;BME280;61999;51.514;14.614;2024-01-30T00:50:02;101476.38;;;-2.62;100.00
15880;BME280;61999;51.514;14.614;2024-01-30T00:52:30;101473.78;;;-2.49;100.00
15880;BME280;61999;51.514;14.614;2024-01-30T00:54:59;101473.72;;;-2.37;100.00
15880;BME280;61999;51.514;14.614;2024-01-30T00:57:28;101483.19;;;-2.28;100.00
15880;BME280;61999;51.514;14.614;2024-01-30T00:59:57;101472.84;;;-2.27;100.00
15880;BME280;61999;51.514;14.614;2024-01-30T01:02:25;101465.13;;;-2.45;100.00
15880;BME280;61999;51.514;14.614;2024-01-30T01:04:53;101481.47;;;-2.45;100.00
15880;BME280;61999;51.514;14.614;2024-01-30T01:07:21;101473.78;;;-2.74;100.00
15880;BME280;61999;51.514;14.614;2024-01-30T01:09:49;101474.66;;;-2.69;100.00
15880;BME280;61999;51.514;14.614;2024-01-30T01:12:17;101475.53;;;-2.78;100.00
15880;BME280;61999;51.514;14.614;2024-01-30T01:14:46;101478.97;;;-2.92;100.00
15880;BME280;61999;51.514;14.614;2024-01-30T01:17:14;101477.25;;;-2.84;100.00
15880;BME280;61999;51.514;14.614;2024-01-30T01:19:42;101483.25;;;-2.79;100.00
15880;BME280;61999;51.514;14.614;2024-01-30T01:22:10;101483.28;;;-3.10;100.00
15880;BME280;61999;51.514;14.614;2024-01-30T01:24:38;101478.97;;;-2.77;100.00
15880;BME280;61999;51.514;14.614;2024-01-30T01:27:06;101476.38;;;-2.86;100.00
15880;BME280;61999;51.514;14.614;2024-01-30T01:29:34;101476.38;;;-2.83;100.00
15880;BME280;61999;51.514;14.614;2024-01-30T01:32:03;101472.06;;;-2.60;100.00
15880;BME280;61999;51.514;14.614;2024-01-30T01:34:32;101478.13;;;-2.99;100.00
15880;BME280;61999;51.514;14.614;2024-01-30T01:37:00;101468.66;;;-2.83;100.00
15880;BME280;61999;51.514;14.614;2024-01-30T01:39:28;101464.34;;;-2.81;100.00
15880;BME280;61999;51.514;14.614;2024-01-30T01:41:56;101461.78;;;-3.21;100.00
15880;BME280;61999;51.514;14.614;2024-01-30T01:44:24;101459.19;;;-2.95;100.00
15880;BME280;61999;51.514;14.614;2024-01-30T01:46:54;101454.84;;;-2.61;100.00
15880;BME280;61999;51.514;14.614;2024-01-30T01:49:25;101458.28;;;-3.40;100.00
15880;BME280;61999;51.514;14.614;2024-01-30T01:51:56;101456.63;;;-3.21;100.00
15880;BME280;61999;51.514;14.614;2024-01-30T01:54:26;101454.00;;;-2.93;100.00
15880;BME280;61999;51.514;14.614;2024-01-30T01:56:56;101449.72;;;-3.40;100.00
15880;BME280;61999;51.514;14.614;2024-01-30T01:59:24;101464.31;;;-3.35;100.00
15880;BME280;61999;51.514;14.614;2024-01-30T02:01:55;101451.44;;;-2.86;100.00
15880;BME280;61999;51.514;14.614;2024-01-30T02:04:25;101455.75;;;-3.00;100.00
15880;BME280;61999;51.514;14.614;2024-01-30T02:06:53;101447.16;;;-2.93;100.00
15880;BME280;61999;51.514;14.614;2024-01-30T02:09:22;101450.59;;;-3.14;100.00
15880;BME280;61999;51.514;14.614;2024-01-30T02:11:50;101456.59;;;-3.12;100.00
15880;BME280;61999;51.514;14.614;2024-01-30T02:14:18;101458.31;;;-3.32;100.00
15880;BME280;61999;51.514;14.614;2024-01-30T02:16:46;101446.28;;;-2.93;100.00
15880;BME280;61999;51.514;14.614;2024-01-30T02:19:14;101446.28;;;-2.84;100.00
15880;BME280;61999;51.514;14.614;2024-01-30T02:21:45;101451.47;;;-2.90;100.00
15880;BME280;61999;51.514;14.614;2024-01-30T02:24:13;101440.25;;;-2.80;100.00
15880;BME280;61999;51.514;14.614;2024-01-30T02:26:41;101447.97;;;-2.59;100.00
15880;BME280;61999;51.514;14.614;2024-01-30T02:29:09;101449.69;;;-3.45;100.00
15880;BME280;61999;51.514;14.614;2024-01-30T02:31:37;101442.78;;;-3.60;100.00
15880;BME280;61999;51.514;14.614;2024-01-30T02:34:05;101445.41;;;-3.31;100.00
15880;BME280;61999;51.514;14.614;2024-01-30T02:36:33;101429.13;;;-3.16;100.00
15880;BME280;61999;51.514;14.614;2024-01-30T02:39:03;101433.38;;;-2.93;100.00
15880;BME280;61999;51.514;14.614;2024-01-30T02:41:31;101434.25;;;-2.94;100.00
15880;BME280;61999;51.514;14.614;2024-01-30T02:44:00;101425.63;;;-2.78;100.00
15880;BME280;61999;51.514;14.614;2024-01-30T02:46:28;101439.41;;;-2.91;100.00
15880;BME280;61999;51.514;14.614;2024-01-30T02:48:56;101435.09;;;-3.43;100.00
15880;BME280;61999;51.514;14.614;2024-01-30T02:51:24;101433.38;;;-3.47;100.00
15880;BME280;61999;51.514;14.614;2024-01-30T02:53:52;101437.63;;;-3.63;100.00
15880;BME280;61999;51.514;14.614;2024-01-30T02:56:21;101430.81;;;-3.33;100.00
15880;BME280;61999;51.514;14.614;2024-01-30T02:58:49;101435.97;;;-3.18;100.00
15880;BME280;61999;51.514;14.614;2024-01-30T03:01:17;101444.50;;;-3.79;100.00
15880;BME280;61999;51.514;14.614;2024-01-30T03:03:45;101441.13;;;-3.27;100.00
15880;BME280;61999;51.514;14.614;2024-01-30T03:06:13;101441.94;;;-3.54;100.00
15880;BME280;61999;51.514;14.614;2024-01-30T03:08:44;101442.84;;;-3.48;100.00
15880;BME280;61999;51.514;14.614;2024-01-30T03:11:12;101433.38;;;-3.53;100.00
15880;BME280;61999;51.514;14.614;2024-01-30T03:13:41;101423.97;;;-3.19;100.00
15880;BME280;61999;51.514;14.614;2024-01-30T03:16:09;101425.66;;;-3.12;100.00
15880;BME280;61999;51.514;14.614;2024-01-30T03:18:37;101424.78;;;-3.34;100.00
15880;BME280;61999;51.514;14.614;2024-01-30T03:21:05;101435.94;;;-3.52;100.00
15880;BME280;61999;51.514;14.614;2024-01-30T03:23:33;101423.94;;;-3.04;100.00
15880;BME280;61999;51.514;14.614;2024-01-30T03:26:01;101422.22;;;-3.23;100.00
15880;BME280;61999;51.514;14.614;2024-01-30T03:28:31;101422.22;;;-3.26;100.00
15880;BME280;61999;51.514;14.614;2024-01-30T03:31:01;101417.03;;;-3.08;100.00
15880;BME280;61999;51.514;14.614;2024-01-30T03:33:29;101420.47;;;-2.81;100.00
15880;BME280;61999;51.514;14.614;2024-01-30T03:35:57;101424.78;;;-2.91;100.00
15880;BME280;61999;51.514;14.614;2024-01-30T03:38:25;101423.94;;;-3.47;100.00
15880;BME280;61999;51.514;14.614;2024-01-30T03:40:53;101422.22;;;-3.02;100.00
15880;BME280;61999;51.514;14.614;2024-01-30T03:43:21;101420.47;;;-2.72;100.00
15880;BME280;61999;51.514;14.614;2024-01-30T03:45:49;101430.78;;;-2.69;100.00
15880;BME280;61999;51.514;14.614;2024-01-30T03:48:18;101431.66;;;-2.76;100.00
15880;BME280;61999;51.514;14.614;2024-01-30T03:50:46;101428.25;;;-3.15;100.00
15880;BME280;61999;51.514;14.614;2024-01-30T03:53:14;101427.38;;;-3.02;100.00
15880;BME280;61999;51.514;14.614;2024-01-30T03:55:42;101431.69;;;-3.01;100.00
15880;BME280;61999;51.514;14.614;2024-01-30T03:58:10;101427.31;;;-2.68;100.00
15880;BME280;61999;51.514;14.614;2024-01-30T04:00:38;101431.63;;;-2.53;100.00
15880;BME280;61999;51.514;14.614;2024-01-30T04:03:07;101434.19;;;-2.55;100.00
15880;BME280;61999;51.514;14.614;2024-01-30T04:05:37;101425.63;;;-2.75;100.00
15880;BME280;61999;51.514;14.614;2024-01-30T04:08:05;101426.50;;;-2.94;100.00
15880;BME280;61999;51.514;14.614;2024-01-30T04:10:34;101428.19;;;-3.56;100.00
15880;BME280;61999;51.514;14.614;2024-01-30T04:13:02;101426.53;;;-3.36;100.00
15880;BME280;61999;51.514;14.614;2024-01-30T04:15:30;101417.91;;;-3.26;100.00
15880;BME280;61999;51.514;14.614;2024-01-30T04:17:59;101410.19;;;-3.33;100.00
15880;BME280;61999;51.514;14.614;2024-01-30T04:20:29;101411.88;;;-3.08;100.00
15880;BME280;61999;51.514;14.614;2024-01-30T04:22:58;101414.47;;;-3.31;100.00
15880;BME280;61999;51.514;14.614;2024-01-30T04:25:26;101410.19;;;-2.87;100.00
15880;BME280;61999;51.514;14.614;2024-01-30T04:27:54;101417.03;;;-2.77;100.00
15880;BME280;61999;51.514;14.614;2024-01-30T04:30:22;101417.91;;;-2.93;100.00
15880;BME280;61999;51.514;14.614;2024-01-30T04:32:50;101415.34;;;-3.23;100.00
15880;BME280;61999;51.514;14.614;2024-01-30T04:35:18;101406.72;;;-3.08;100.00
15880;BME280;61999;51.514;14.614;2024-01-30T04:37:51;101422.22;;;-3.48;100.00
15880;BME280;61999;51.514;14.614;2024-01-30T04:40:21;101425.63;;;-3.42;100.00
15880;BME280;61999;51.514;14.614;2024-01-30T04:42:50;101420.50;;;-3.15;100.00
15880;BME280;61999;51.514;14.614;2024-01-30T04:45:17;101425.63;;;-3.49;100.00
15880;BME280;61999;51.514;14.614;2024-01-30T04:47:45;101425.66;;;-3.27;100.00
15880;BME280;61999;51.514;14.614;2024-01-30T04:50:13;101418.72;;;-3.71;100.00
15880;BME280;61999;51.514;14.614;2024-01-30T04:52:41;101424.81;;;-3.38;100.00
15880;BME280;61999;51.514;14.614;2024-01-30T04:55:09;101434.25;;;-3.43;100.00
15880;BME280;61999;51.514;14.614;2024-01-30T04:57:39;101415.34;;;-3.09;100.00
15880;BME280;61999;51.514;14.614;2024-01-30T05:00:09;101429.03;;;-2.65;100.00
15880;BME280;61999;51.514;14.614;2024-01-30T05:02:37;101425.66;;;-3.15;100.00
15880;BME280;61999;51.514;14.614;2024-01-30T05:05:06;101424.75;;;-2.69;100.00
15880;BME280;61999;51.514;14.614;2024-01-30T05:07:34;101424.66;;;-2.29;100.00
15880;BME280;61999;51.514;14.614;2024-01-30T05:10:03;101422.16;;;-2.56;100.00
15880;BME280;61999;51.514;14.614;2024-01-30T05:12:32;101423.91;;;-2.71;100.00
15880;BME280;61999;51.514;14.614;2024-01-30T05:15:02;101410.03;;;-2.35;100.00
15880;BME280;61999;51.514;14.614;2024-01-30T05:17:30;101415.06;;;-2.01;100.00
15880;BME280;61999;51.514;14.614;2024-01-30T05:19:58;101413.44;;;-2.21;100.00
15880;BME280;61999;51.514;14.614;2024-01-30T05:22:26;101416.94;;;-2.45;100.00
15880;BME280;61999;51.514;14.614;2024-01-30T05:24:53;101412.69;;;-2.55;100.00
15880;BME280;61999;51.514;14.614;2024-01-30T05:27:21;101412.66;;;-2.47;100.00
15880;BME280;61999;51.514;14.614;2024-01-30T05:29:49;101416.06;;;-2.41;100.00
15880;BME280;61999;51.514;14.614;2024-01-30T05:32:19;101413.41;;;-2.18;100.00
15880;BME280;61999;51.514;14.614;2024-01-30T05:34:46;101412.41;;;-1.89;100.00
15880;BME280;61999;51.514;14.614;2024-01-30T05:37:17;101416.78;;;-2.00;100.00
15880;BME280;61999;51.514;14.614;2024-01-30T05:39:45;101416.75;;;-1.96;100.00
15880;BME280;61999;51.514;14.614;2024-01-30T05:42:13;101404.69;;;-1.95;100.00
15880;BME280;61999;51.514;14.614;2024-01-30T05:44:41;101408.06;;;-1.81;100.00
15880;BME280;61999;51.514;14.614;2024-01-30T05:47:10;101402.81;;;-1.72;100.00
15880;BME280;61999;51.514;14.614;2024-01-30T05:49:39;101406.56;;;-2.28;100.00
15880;BME280;61999;51.514;14.614;2024-01-30T05:52:07;101404.75;;;-2.14;100.00
15880;BME280;61999;51.514;14.614;2024-01-30T05:54:35;101410.06;;;-2.53;100.00
15880;BME280;61999;51.514;14.614;2024-01-30T05:57:03;101398.88;;;-2.43;100.00
15880;BME280;61999;51.514;14.614;2024-01-30T05:59:32;101406.50;;;-2.13;100.00
15880;BME280;61999;51.514;14.614;2024-01-30T06:02:00;101404.91;;;-2.47;100.00
15880;BME280;61999;51.514;14.614;2024-01-30T06:04:28;101404.97;;;-2.80;100.00
15880;BME280;61999;51.514;14.614;2024-01-30T06:06:57;101407.44;;;-2.29;100.00
15880;BME280;61999;51.514;14.614;2024-01-30T06:09:28;101401.44;;;-2.40;100.00
15880;BME280;61999;51.514;14.614;2024-01-30T06:11:56;101404.91;;;-2.50;100.00
15880;BME280;61999;51.514;14.614;2024-01-30T06:14:24;101404.94;;;-2.63;100.00
15880;BME280;61999;51.514;14.614;2024-01-30T06:16:52;101396.34;;;-2.65;100.00
15880;BME280;61999;51.514;14.614;2024-01-30T06:19:20;101401.38;;;-2.28;100.00
15880;BME280;61999;51.514;14.614;2024-01-30T06:21:48;101403.16;;;-2.33;100.00
15880;BME280;61999;51.514;14.614;2024-01-30T06:24:17;101406.41;;;-1.97;100.00
15880;BME280;61999;51.514;14.614;2024-01-30T06:26:46;101401.16;;;-1.82;100.00
15880;BME280;61999;51.514;14.614;2024-01-30T06:29:14;101404.50;;;-1.68;100.00
15880;BME280;61999;51.514;14.614;2024-01-30T06:31:44;101409.69;;;-1.60;100.00
15880;BME280;61999;51.514;14.614;2024-01-30T06:34:12;101400.19;;;-1.62;100.00
15880;BME280;61999;51.514;14.614;2024-01-30T06:36:40;101404.47;;;-1.55;100.00
15880;BME280;61999;51.514;14.614;2024-01-30T06:39:08;101398.41;;;-1.50;100.00
15880;BME280;61999;51.514;14.614;2024-01-30T06:41:38;101396.66;;;-1.46;100.00
15880;BME280;61999;51.514;14.614;2024-01-30T06:44:06;101397.50;;;-1.44;100.00
15880;BME280;61999;51.514;14.614;2024-01-30T06:46:35;101396.63;;;-1.43;100.00
15880;BME280;61999;51.514;14.614;2024-01-30T06:49:03;101398.38;;;-1.44;100.00
15880;BME280;61999;51.514;14.614;2024-01-30T06:51:31;101400.16;;;-1.50;100.00
15880;BME280;61999;51.514;14.614;2024-01-30T06:53:59;101398.50;;;-1.70;100.00
15880;BME280;61999;51.514;14.614;2024-01-30T06:56:28;101401.00;;;-1.54;100.00
15880;BME280;61999;51.514;14.614;2024-01-30T06:58:57;101396.63;;;-1.41;100.00
15880;BME280;61999;51.514;14.614;2024-01-30T07:01:28;101390.53;;;-1.39;100.00
15880;BME280;61999;51.514;14.614;2024-01-30T07:03:57;101393.94;;;-1.31;100.00
15880;BME280;61999;51.514;14.614;2024-01-30T07:06:25;101399.09;;;-1.28;100.00
15880;BME280;61999;51.514;14.614;2024-01-30T07:08:53;101400.00;;;-1.35;100.00
15880;BME280;61999;51.514;14.614;2024-01-30T07:11:22;101409.50;;;-1.32;100.00
15880;BME280;61999;51.514;14.614;2024-01-30T07:13:51;101411.19;;;-1.30;100.00
15880;BME280;61999;51.514;14.614;2024-01-30T07:16:20;101414.56;;;-1.18;100.00
15880;BME280;61999;51.514;14.614;2024-01-30T07:18:49;101410.34;;;-1.33;100.00
15880;BME280;61999;51.514;14.614;2024-01-30T07:21:17;101409.31;;;-1.12;100.00
15880;BME280;61999;51.514;14.614;2024-01-30T07:23:45;101411.75;;;-0.97;100.00
15880;BME280;61999;51.514;14.614;2024-01-30T07:26:13;101410.72;;;-0.78;100.00
15880;BME280;61999;51.514;14.614;2024-01-30T07:28:41;101412.22;;;-0.57;100.00
15880;BME280;61999;51.514;14.614;2024-01-30T07:31:10;101413.44;;;-0.90;100.00
15880;BME280;61999;51.514;14.614;2024-01-30T07:33:40;101407.97;;;-0.62;100.00
15880;BME280;61999;51.514;14.614;2024-01-30T07:36:08;101408.13;;;-0.79;100.00
15880;BME280;61999;51.514;14.614;2024-01-30T07:38:37;101411.09;;;-0.33;100.00
15880;BME280;61999;51.514;14.614;2024-01-30T07:41:05;101414.06;;;-0.68;100.00
15880;BME280;61999;51.514;14.614;2024-01-30T07:43:33;101407.63;;;-0.32;100.00
15880;BME280;61999;51.514;14.614;2024-01-30T07:46:01;101407.34;;;-0.09;100.00
15880;BME280;61999;51.514;14.614;2024-01-30T07:48:29;101405.38;;;0.10;100.00
15880;BME280;61999;51.514;14.614;2024-01-30T07:50:59;101399.19;;;0.18;100.00
15880;BME280;61999;51.514;14.614;2024-01-30T07:53:27;101402.59;;;0.23;100.00
15880;BME280;61999;51.514;14.614;2024-01-30T07:55:55;101404.38;;;0.18;100.00
15880;BME280;61999;51.514;14.614;2024-01-30T07:58:23;101406.31;;;0.03;100.00
15880;BME280;61999;51.514;14.614;2024-01-30T08:00:54;101402.34;;;0.41;100.00
15880;BME280;61999;51.514;14.614;2024-01-30T08:03:24;101405.19;;;-0.44;100.00
15880;BME280;61999;51.514;14.614;2024-01-30T08:05:52;101407.59;;;-0.28;100.00
15880;BME280;61999;51.514;14.614;2024-01-30T08:08:22;101410.38;;;-0.44;100.00
15880;BME280;61999;51.514;14.614;2024-01-30T08:10:50;101401.50;;;-0.26;100.00
15880;BME280;61999;51.514;14.614;2024-01-30T08:13:18;101404.81;;;-0.16;100.00
15880;BME280;61999;51.514;14.614;2024-01-30T08:15:46;101407.56;;;0.38;100.00
15880;BME280;61999;51.514;14.614;2024-01-30T08:18:14;101406.13;;;0.15;99.64
15880;BME280;61999;51.514;14.614;2024-01-30T08:20:42;101405.88;;;-0.30;100.00
15880;BME280;61999;51.514;14.614;2024-01-30T08:23:10;101401.59;;;-0.32;100.00
15880;BME280;61999;51.514;14.614;2024-01-30T08:25:39;101406.06;;;0.22;100.00
15880;BME280;61999;51.514;14.614;2024-01-30T08:28:07;101405.72;;;0.46;100.00
15880;BME280;61999;51.514;14.614;2024-01-30T08:30:35;101395.16;;;0.58;99.09
15880;BME280;61999;51.514;14.614;2024-01-30T08:33:03;101404.13;;;0.39;97.92
15880;BME280;61999;51.514;14.614;2024-01-30T08:35:31;101399.22;;;0.76;96.88
15880;BME280;61999;51.514;14.614;2024-01-30T08:38:00;101397.41;;;0.80;96.79
15880;BME280;61999;51.514;14.614;2024-01-30T08:40:29;101397.09;;;0.47;96.25
15880;BME280;61999;51.514;14.614;2024-01-30T08:42:58;101392.59;;;0.55;97.68
15880;BME280;61999;51.514;14.614;2024-01-30T08:45:26;101389.22;;;1.03;96.85
15880;BME280;61999;51.514;14.614;2024-01-30T08:47:54;101389.50;;;0.86;94.23
15880;BME280;61999;51.514;14.614;2024-01-30T08:50:22;101383.25;;;0.98;94.27
15880;BME280;61999;51.514;14.614;2024-01-30T08:52:50;101380.06;;;0.82;94.54
15880;BME280;61999;51.514;14.614;2024-01-30T08:55:18;101384.81;;;1.07;94.09
15880;BME280;61999;51.514;14.614;2024-01-30T08:57:46;101383.75;;;0.69;95.71
15880;BME280;61999;51.514;14.614;2024-01-30T09:00:17;101385.88;;;0.96;93.60
15880;BME280;61999;51.514;14.614;2024-01-30T09:02:45;101382.28;;;1.03;95.40
15880;BME280;61999;51.514;14.614;2024-01-30T09:05:13;101382.09;;;1.13;92.83
15880;BME280;61999;51.514;14.614;2024-01-30T09:07:41;101378.59;;;1.17;93.06
15880;BME280;61999;51.514;14.614;2024-01-30T09:10:09;101374.06;;;1.70;90.39
15880;BME280;61999;51.514;14.614;2024-01-30T09:12:38;101378.41;;;1.26;91.80
15880;BME280;61999;51.514;14.614;2024-01-30T09:15:08;101382.34;;;1.90;90.59
15880;BME280;61999;51.514;14.614;2024-01-30T09:17:38;101374.72;;;2.20;90.10
15880;BME280;61999;51.514;14.614;2024-01-30T09:20:07;101375.28;;;1.52;87.72
15880;BME280;61999;51.514;14.614;2024-01-30T09:22:36;101376.94;;;1.98;88.91
15880;BME280;61999;51.514;14.614;2024-01-30T09:25:04;101377.03;;;2.32;84.53
15880;BME280;61999;51.514;14.614;2024-01-30T09:27:32;101372.66;;;2.70;85.08
15880;BME280;61999;51.514;14.614;2024-01-30T09:30:00;101372.50;;;2.42;84.31
15880;BME280;61999;51.514;14.614;2024-01-30T09:32:28;101374.72;;;2.57;83.32
15880;BME280;61999;51.514;14.614;2024-01-30T09:34:57;101372.91;;;3.59;81.26
15880;BME280;61999;51.514;14.614;2024-01-30T09:37:26;101374.06;;;3.79;81.03
15880;BME280;61999;51.514;14.614;2024-01-30T09:39:54;101373.63;;;3.94;72.80
15880;BME280;61999;51.514;14.614;2024-01-30T09:42:28;101377.31;;;3.24;75.63
15880;BME280;61999;51.514;14.614;2024-01-30T09:45:01;101367.75;;;4.15;78.83
15880;BME280;61999;51.514;14.614;2024-01-30T09:47:32;101374.16;;;3.75;73.73
15880;BME280;61999;51.514;14.614;2024-01-30T09:50:02;101377.56;;;4.07;72.93
15880;BME280;61999;51.514;14.614;2024-01-30T09:52:32;101374.59;;;4.19;71.95
15880;BME280;61999;51.514;14.614;2024-01-30T09:55:01;101368.00;;;4.62;69.88
15880;BME280;61999;51.514;14.614;2024-01-30T09:57:29;101370.53;;;5.16;69.06
15880;BME280;61999;51.514;14.614;2024-01-30T09:59:58;101378.88;;;4.20;67.95
15880;BME280;61999;51.514;14.614;2024-01-30T10:02:26;101376.38;;;4.17;68.83
15880;BME280;61999;51.514;14.614;2024-01-30T10:04:55;101376.41;;;3.27;72.64
15880;BME280;61999;51.514;14.614;2024-01-30T10:07:24;101379.91;;;4.16;73.67
15880;BME280;61999;51.514;14.614;2024-01-30T10:09:53;101383.78;;;4.59;66.79
15880;BME280;61999;51.514;14.614;2024-01-30T10:12:22;101381.56;;;4.74;66.36
15880;BME280;61999;51.514;14.614;2024-01-30T10:14:50;101381.47;;;2.99;73.76
15880;BME280;61999;51.514;14.614;2024-01-30T10:17:18;101383.47;;;3.22;75.11
15880;BME280;61999;51.514;14.614;2024-01-30T10:19:50;101377.72;;;3.11;77.11
15880;BME280;61999;51.514;14.614;2024-01-30T10:22:19;101376.97;;;2.71;76.95
15880;BME280;61999;51.514;14.614;2024-01-30T10:24:49;101378.34;;;3.51;74.67
15880;BME280;61999;51.514;14.614;2024-01-30T10:27:25;101376.47;;;2.57;78.14
15880;BME280;61999;51.514;14.614;2024-01-30T10:29:53;101371.28;;;2.20;81.21
15880;BME280;61999;51.514;14.614;2024-01-30T10:32:22;101369.97;;;2.39;81.49
15880;BME280;61999;51.514;14.614;2024-01-30T10:34:50;101376.63;;;3.18;79.02
15880;BME280;61999;51.514;14.614;2024-01-30T10:37:21;101369.88;;;3.43;80.33
15880;BME280;61999;51.514;14.614;2024-01-30T10:39:56;101365.00;;;2.98;78.41
15880;BME280;61999;51.514;14.614;2024-01-30T10:42:32;101365.06;;;1.86;84.50
15880;BME280;61999;51.514;14.614;2024-01-30T10:45:07;101372.50;;;1.18;91.03
15880;BME280;61999;51.514;14.614;2024-01-30T10:47:36;101369.88;;;0.70;95.42
15880;BME280;61999;51.514;14.614;2024-01-30T10:50:07;101366.38;;;0.74;98.96
15880;BME280;61999;51.514;14.614;2024-01-30T10:52:41;101356.38;;;1.00;93.94
15880;BME280;61999;51.514;14.614;2024-01-30T10:55:12;101348.44;;;1.52;91.63
15880;BME280;61999;51.514;14.614;2024-01-30T10:57:41;101350.50;;;2.18;86.41
15880;BME280;61999;51.514;14.614;2024-01-30T11:00:13;101356.81;;;2.44;81.81
15880;BME280;61999;51.514;14.614;2024-01-30T11:02:45;101344.72;;;2.43;81.13
15880;BME280;61999;51.514;14.614;2024-01-30T11:05:14;101345.06;;;2.96;79.52
15880;BME280;61999;51.514;14.614;2024-01-30T11:07:42;101335.66;;;3.84;76.19
15880;BME280;61999;51.514;14.614;2024-01-30T11:10:12;101323.06;;;3.39;76.77
15880;BME280;61999;51.514;14.614;2024-01-30T11:12:42;101327.03;;;3.82;73.86
15880;BME280;61999;51.514;14.614;2024-01-30T11:15:13;101314.25;;;4.02;75.06
15880;BME280;61999;51.514;14.614;2024-01-30T11:17:43;101321.03;;;4.34;69.96
15880;BME280;61999;51.514;14.614;2024-01-30T11:20:14;101315.97;;;4.81;66.57
15880;BME280;61999;51.514;14.614;2024-01-30T11:22:44;101312.84;;;5.20;63.25
15880;BME280;61999;51.514;14.614;2024-01-30T11:25:15;101317.47;;;4.63;66.58
15880;BME280;61999;51.514;14.614;2024-01-30T11:27:45;101317.50;;;5.12;62.67
15880;BME280;61999;51.514;14.614;2024-01-30T11:30:22;101316.09;;;5.03;61.62
15880;BME280;61999;51.514;14.614;2024-01-30T11:33:01;101308.47;;;5.21;61.39
15880;BME280;61999;51.514;14.614;2024-01-30T11:35:32;101315.34;;;4.75;58.73
15880;BME280;61999;51.514;14.614;2024-01-30T11:38:02;101321.34;;;4.25;60.54
15880;BME280;61999;51.514;14.614;2024-01-30T11:40:33;101308.81;;;4.61;62.03
15880;BME280;61999;51.514;14.614;2024-01-30T11:43:03;101304.19;;;5.42;56.41
15880;BME280;61999;51.514;14.614;2024-01-30T11:45:33;101297.78;;;5.27;57.94
15880;BME280;61999;51.514;14.614;2024-01-30T11:48:01;101289.13;;;6.16;55.93
15880;BME280;61999;51.514;14.614;2024-01-30T11:50:31;101291.09;;;5.20;54.75
15880;BME280;61999;51.514;14.614;2024-01-30T11:52:59;101286.06;;;5.61;54.47
15880;BME280;61999;51.514;14.614;2024-01-30T11:55:29;101277.06;;;5.68;53.38
15880;BME280;61999;51.514;14.614;2024-01-30T11:58:00;101276.41;;;5.63;53.60
15880;BME280;61999;51.514;14.614;2024-01-30T12:00:29;101284.09;;;5.89;49.80
15880;BME280;61999;51.514;14.614;2024-01-30T12:02:57;101273.06;;;6.46;49.88
15880;BME280;61999;51.514;14.614;2024-01-30T12:05:28;101272.91;;;6.28;47.82
15880;BME280;61999;51.514;14.614;2024-01-30T12:07:56;101270.97;;;5.45;51.82
15880;BME280;61999;51.514;14.614;2024-01-30T12:10:25;101276.53;;;4.89;55.06
15880;BME280;61999;51.514;14.614;2024-01-30T12:12:54;101277.03;;;5.69;55.06
15880;BME280;61999;51.514;14.614;2024-01-30T12:15:24;101284.13;;;5.88;52.74
15880;BME280;61999;51.514;14.614;2024-01-30T12:18:03;101284.38;;;5.60;51.73
15880;BME280;61999;51.514;14.614;2024-01-30T12:20:31;101279.28;;;6.01;50.22
15880;BME280;61999;51.514;14.614;2024-01-30T12:22:59;101281.13;;;6.19;48.49
15880;BME280;61999;51.514;14.614;2024-01-30T12:25:28;101275.25;;;6.14;50.54
15880;BME280;61999;51.514;14.614;2024-01-30T12:27:56;101272.78;;;6.52;50.39
15880;BME280;61999;51.514;14.614;2024-01-30T12:30:25;101281.00;;;4.60;56.05
15880;BME280;61999;51.514;14.614;2024-01-30T12:32:54;101264.59;;;5.29;56.10
15880;BME280;61999;51.514;14.614;2024-01-30T12:35:23;101264.41;;;5.57;55.15
15880;BME280;61999;51.514;14.614;2024-01-30T12:37:52;101272.69;;;3.68;63.15
15880;BME280;61999;51.514;14.614;2024-01-30T12:40:20;101268.66;;;2.97;70.37
15880;BME280;61999;51.514;14.614;2024-01-30T12:42:48;101269.72;;;3.79;67.93
15880;BME280;61999;51.514;14.614;2024-01-30T12:45:17;101252.78;;;4.70;61.43